Time;durP1;ratioP1;P1;durP2;ratioP2;P2;SDS_P1;SDS_P2;PMS_P1;PMS_P2;Temp;Humidity;BMP_temperature;BMP_pressure;BME280_temperature;BME280_humidity;BME280_pressure;Samples;Min_cycle;Max_cycle;Signal;HPM_P1;HPM_P2
2023/08/25 00:01:16;;;;;;;17.05;10.75;;;19.60;99.90;;;;;;5037292;28;20053;-72
2023/08/25 00:03:42;;;;;;;16.58;11.15;;;19.60;99.90;;;;;;5014184;28;152537;-76
2023/08/25 00:06:08;;;;;;;15.73;10.63;;;19.60;99.90;;;;;;5062344;28;20040;-75
2023/08/25 00:08:35;;;;;;;17.40;10.75;;;19.50;99.90;;;;;;5007678;28;20045;-73
2023/08/25 00:11:01;;;;;;;17.35;10.20;;;19.50;99.90;;;;;;5065984;28;20048;-73
2023/08/25 00:13:27;;;;;;;16.52;11.18;;;19.50;99.90;;;;;;5006688;28;20387;-74
2023/08/25 00:15:53;;;;;;;15.68;10.80;;;19.40;99.90;;;;;;5064673;28;20048;-73
2023/08/25 00:18:19;;;;;;;18.63;11.57;;;19.40;99.90;;;;;;5019545;28;20601;-75
2023/08/25 00:20:47;;;;;;;16.52;11.20;;;19.40;99.90;;;;;;5059739;28;20056;-73
2023/08/25 00:23:13;;;;;;;18.55;11.07;;;19.40;99.90;;;;;;5023913;28;20874;-73
2023/08/25 00:25:39;;;;;;;17.73;11.45;;;19.40;99.90;;;;;;5062431;28;20467;-73
2023/08/25 00:28:05;;;;;;;17.83;12.15;;;19.40;99.90;;;;;;5022301;28;20056;-77
2023/08/25 00:30:31;;;;;;;20.40;12.82;;;19.50;99.90;;;;;;5065806;28;20052;-73
2023/08/25 00:32:57;;;;;;;17.60;11.80;;;19.50;99.90;;;;;;5019652;28;20630;-73
2023/08/25 00:35:24;;;;;;;22.48;12.63;;;19.60;99.90;;;;;;5062175;28;20060;-73
2023/08/25 00:37:50;;;;;;;18.33;12.55;;;19.50;99.90;;;;;;5021011;28;20045;-72
2023/08/25 00:40:16;;;;;;;20.08;15.30;;;19.50;99.90;;;;;;5059481;28;21278;-73
2023/08/25 00:42:42;;;;;;;21.70;15.18;;;19.50;99.90;;;;;;5014027;28;92952;-72
2023/08/25 00:45:08;;;;;;;18.25;14.65;;;19.60;99.90;;;;;;5050398;28;20044;-73
2023/08/25 00:47:35;;;;;;;21.98;15.48;;;19.60;99.90;;;;;;5023177;28;20056;-73
2023/08/25 00:50:02;;;;;;;18.67;15.50;;;19.60;99.90;;;;;;5067750;28;20051;-74
2023/08/25 00:52:29;;;;;;;20.23;15.45;;;19.70;99.90;;;;;;5012895;28;194528;-73
2023/08/25 00:54:56;;;;;;;18.38;15.18;;;19.70;99.90;;;;;;5076480;28;20048;-74
2023/08/25 00:57:23;;;;;;;22.83;16.20;;;19.70;99.90;;;;;;5020958;28;20103;-73
2023/08/25 00:59:50;;;;;;;18.67;15.55;;;19.70;99.90;;;;;;5064687;28;20128;-73
2023/08/25 01:02:16;;;;;;;20.10;15.48;;;19.70;99.90;;;;;;5009832;28;20644;-75
2023/08/25 01:04:42;;;;;;;20.65;15.63;;;19.70;99.90;;;;;;5030393;28;20053;-74
2023/08/25 01:07:08;;;;;;;24.15;16.08;;;19.70;99.90;;;;;;5006310;28;20048;-74
2023/08/25 01:09:35;;;;;;;22.45;16.15;;;19.70;99.90;;;;;;5047226;28;20046;-73
2023/08/25 01:12:08;;;;;;;23.65;16.60;;;19.80;99.90;;;;;;5002081;28;20049;-75
2023/08/25 01:15:04;;;;;;;22.20;15.68;;;19.80;99.90;;;;;;5061306;28;20055;-73
2023/08/25 01:17:38;;;;;;;22.35;16.58;;;19.80;99.90;;;;;;5019074;28;20542;-75
2023/08/25 01:20:07;;;;;;;20.80;16.67;;;19.80;99.90;;;;;;5066154;28;20044;-74
2023/08/25 01:22:43;;;;;;;19.65;15.30;;;19.80;99.90;;;;;;5023988;28;20059;-77
2023/08/25 01:25:25;;;;;;;21.15;15.88;;;19.80;99.90;;;;;;5064067;28;20052;-74
2023/08/25 01:27:53;;;;;;;20.60;15.73;;;19.80;99.90;;;;;;5022562;28;20058;-74
2023/08/25 01:30:23;;;;;;;21.10;16.08;;;19.80;99.90;;;;;;5064824;28;20048;-76
2023/08/25 01:32:51;;;;;;;22.40;16.15;;;19.70;99.90;;;;;;5034753;28;20041;-72
2023/08/25 01:35:38;;;;;;;23.63;17.67;;;19.70;99.90;;;;;;5059488;28;20048;-72
2023/08/25 01:38:09;;;;;;;22.35;17.23;;;19.70;99.90;;;;;;5021414;28;20052;-75
2023/08/25 01:41:03;;;;;;;24.45;18.98;;;19.60;99.90;;;;;;5058718;28;20052;-72
2023/08/25 01:43:32;;;;;;;24.75;19.65;;;19.50;99.90;;;;;;5015547;28;20052;-73
2023/08/25 01:45:59;;;;;;;23.70;18.02;;;19.50;99.90;;;;;;5059231;28;20060;-77
2023/08/25 01:48:28;;;;;;;24.60;20.08;;;19.50;99.90;;;;;;5029261;28;20063;-76
2023/08/25 01:50:55;;;;;;;24.90;19.75;;;19.40;99.90;;;;;;5057278;28;20436;-73
2023/08/25 01:53:21;;;;;;;26.92;19.95;;;19.40;99.90;;;;;;5016522;28;111839;-73
2023/08/25 01:55:48;;;;;;;24.88;20.15;;;19.40;99.90;;;;;;5057679;28;20666;-74
2023/08/25 01:58:14;;;;;;;24.77;19.80;;;19.40;99.90;;;;;;5027159;28;20048;-73
2023/08/25 02:00:41;;;;;;;25.63;21.20;;;19.30;99.90;;;;;;5057347;28;20075;-73
2023/08/25 02:03:07;;;;;;;25.00;20.35;;;19.40;99.90;;;;;;5024364;28;20499;-73
2023/08/25 02:05:33;;;;;;;25.27;20.77;;;19.30;99.90;;;;;;5059493;28;20052;-73
2023/08/25 02:07:59;;;;;;;24.92;21.00;;;19.40;99.90;;;;;;5021099;28;20056;-73
2023/08/25 02:10:25;;;;;;;27.00;20.80;;;19.40;99.90;;;;;;5062153;28;20049;-76
2023/08/25 02:12:51;;;;;;;24.70;21.05;;;19.30;99.90;;;;;;5026169;28;20044;-73
2023/08/25 02:15:17;;;;;;;27.15;22.65;;;19.30;99.90;;;;;;5050651;28;20426;-73
2023/08/25 02:17:43;;;;;;;27.63;22.23;;;19.30;99.90;;;;;;5013098;28;20040;-73
2023/08/25 02:20:10;;;;;;;28.67;23.05;;;19.30;99.90;;;;;;5054729;28;20053;-73
2023/08/25 02:22:36;;;;;;;31.85;23.45;;;19.30;99.90;;;;;;5017274;28;20545;-73
2023/08/25 02:25:03;;;;;;;29.17;23.60;;;19.30;99.90;;;;;;5060455;28;20055;-75
2023/08/25 02:27:29;;;;;;;30.42;25.23;;;19.30;99.90;;;;;;5017012;28;20561;-73
2023/08/25 02:29:55;;;;;;;32.72;26.15;;;19.30;99.90;;;;;;5056922;28;20056;-73
2023/08/25 02:32:21;;;;;;;28.73;23.38;;;19.30;99.90;;;;;;5022089;28;20049;-73
2023/08/25 02:34:48;;;;;;;30.23;24.15;;;19.30;99.90;;;;;;5062342;28;20434;-75
2023/08/25 02:37:14;;;;;;;31.95;25.17;;;19.30;99.90;;;;;;5020815;28;20048;-72
2023/08/25 02:39:40;;;;;;;30.05;24.92;;;19.30;99.90;;;;;;5062228;28;20052;-72
2023/08/25 02:42:06;;;;;;;28.38;24.35;;;19.20;99.90;;;;;;5023842;28;20103;-72
2023/08/25 02:44:32;;;;;;;27.67;22.90;;;19.20;99.90;;;;;;5052012;28;20091;-73
2023/08/25 02:46:59;;;;;;;31.15;24.75;;;19.20;99.90;;;;;;5018840;28;20056;-74
2023/08/25 02:49:25;;;;;;;29.73;23.75;;;19.10;99.90;;;;;;5059306;28;20063;-74
2023/08/25 02:51:51;;;;;;;29.23;23.55;;;19.10;99.90;;;;;;5016542;28;56242;-74
2023/08/25 02:54:17;;;;;;;33.45;24.58;;;19.10;99.90;;;;;;5057325;28;20060;-74
2023/08/25 02:56:43;;;;;;;31.88;25.83;;;19.10;99.90;;;;;;5021234;28;20503;-72
2023/08/25 02:59:09;;;;;;;31.30;26.23;;;19.10;99.90;;;;;;5047089;28;20053;-72
2023/08/25 03:01:36;;;;;;;32.50;26.02;;;19.00;99.90;;;;;;5044011;28;20053;-72
2023/08/25 03:04:02;;;;;;;32.78;26.77;;;19.00;99.90;;;;;;5038585;28;20044;-74
2023/08/25 03:06:28;;;;;;;36.53;28.83;;;18.90;99.90;;;;;;5061887;28;20085;-73
2023/08/25 03:08:54;;;;;;;34.08;27.67;;;18.90;99.90;;;;;;5019546;28;20043;-73
2023/08/25 03:11:20;;;;;;;34.92;27.10;;;18.90;99.90;;;;;;5054726;28;20522;-74
2023/08/25 03:13:46;;;;;;;31.70;27.42;;;18.90;99.90;;;;;;5027400;28;20051;-73
2023/08/25 03:16:12;;;;;;;35.75;30.17;;;18.80;99.90;;;;;;5058969;28;20060;-74
2023/08/25 03:18:40;;;;;;;36.35;29.45;;;18.80;99.90;;;;;;4991025;28;20045;-73
2023/08/25 03:21:06;;;;;;;39.53;29.83;;;18.80;99.90;;;;;;5060651;28;20063;-72
2023/08/25 03:23:32;;;;;;;39.13;29.95;;;18.80;99.90;;;;;;5014863;28;21809;-72
2023/08/25 03:26:01;;;;;;;37.30;30.17;;;18.80;99.90;;;;;;5058715;28;20074;-74
2023/08/25 03:28:28;;;;;;;42.20;31.52;;;18.80;99.90;;;;;;5016486;28;20491;-73
2023/08/25 03:30:54;;;;;;;35.47;27.35;;;18.80;99.90;;;;;;5063787;28;20048;-73
2023/08/25 03:33:20;;;;;;;35.10;28.05;;;18.70;99.90;;;;;;5041385;28;20075;-73
2023/08/25 03:35:46;;;;;;;42.03;31.73;;;18.70;99.90;;;;;;5066160;28;20067;-72
2023/08/25 03:38:12;;;;;;;42.75;31.60;;;18.70;99.90;;;;;;5023333;28;20518;-73
2023/08/25 03:40:38;;;;;;;41.10;30.83;;;18.70;99.90;;;;;;5063500;28;20060;-73
2023/08/25 03:43:04;;;;;;;39.80;32.08;;;18.70;99.90;;;;;;5019147;28;20056;-75
2023/08/25 03:45:30;;;;;;;50.10;36.40;;;18.70;99.90;;;;;;5053982;28;20694;-74
2023/08/25 03:47:56;;;;;;;47.08;34.47;;;18.70;99.90;;;;;;5008755;28;20060;-72
2023/08/25 03:50:24;;;;;;;50.67;36.97;;;18.70;99.90;;;;;;5053430;28;20045;-75
2023/08/25 03:52:52;;;;;;;50.15;36.13;;;18.70;99.90;;;;;;4994794;28;135211;-74
2023/08/25 03:55:18;;;;;;;45.95;35.10;;;18.70;99.90;;;;;;5047397;28;20053;-72
2023/08/25 03:57:44;;;;;;;49.20;36.85;;;18.70;99.90;;;;;;5006331;28;20052;-74
2023/08/25 04:00:11;;;;;;;47.65;35.22;;;18.70;99.90;;;;;;5045661;28;20056;-72
2023/08/25 04:02:39;;;;;;;42.70;32.80;;;18.80;99.90;;;;;;5000992;28;20062;-72
2023/08/25 04:05:06;;;;;;;46.80;33.58;;;18.80;99.90;;;;;;5030266;28;20443;-72
2023/08/25 04:07:32;;;;;;;36.47;30.58;;;18.80;99.90;;;;;;5015627;28;20056;-75
2023/08/25 04:09:59;;;;;;;42.00;32.63;;;18.80;99.90;;;;;;5049857;28;20133;-73
2023/08/25 04:12:25;;;;;;;47.75;35.75;;;18.90;99.90;;;;;;5005526;28;20052;-73
2023/08/25 04:14:51;;;;;;;39.45;31.63;;;18.90;99.90;;;;;;5052903;28;20534;-73
2023/08/25 04:17:17;;;;;;;38.72;30.65;;;18.90;99.90;;;;;;4997999;28;20064;-73
2023/08/25 04:19:43;;;;;;;38.55;31.42;;;18.90;99.90;;;;;;5042977;28;20062;-73
2023/08/25 04:22:09;;;;;;;37.53;30.08;;;18.90;99.90;;;;;;5002707;28;20064;-74
2023/08/25 04:24:35;;;;;;;44.63;33.00;;;19.00;99.90;;;;;;5032352;28;20083;-73
2023/08/25 04:27:01;;;;;;;41.03;31.25;;;19.00;99.90;;;;;;5003000;28;20103;-73
2023/08/25 04:29:27;;;;;;;36.63;30.90;;;19.00;99.90;;;;;;5040332;28;20045;-74
2023/08/25 04:31:53;;;;;;;45.35;34.22;;;19.00;99.90;;;;;;5002725;28;20652;-72
2023/08/25 04:34:19;;;;;;;37.75;31.38;;;19.00;99.90;;;;;;5033285;28;20068;-72
2023/08/25 04:36:46;;;;;;;40.65;31.98;;;19.00;99.90;;;;;;5004752;28;20057;-72
2023/08/25 04:39:13;;;;;;;45.33;34.28;;;19.10;99.90;;;;;;5013867;28;20049;-73
2023/08/25 04:41:40;;;;;;;46.75;34.75;;;19.00;99.90;;;;;;5026734;28;20069;-73
2023/08/25 04:44:06;;;;;;;46.53;34.63;;;19.10;99.90;;;;;;5036011;28;20053;-73
2023/08/25 04:46:32;;;;;;;43.55;34.55;;;19.10;99.90;;;;;;5039160;28;20041;-71
2023/08/25 04:48:58;;;;;;;43.50;34.72;;;19.10;99.90;;;;;;5007429;28;20067;-73
2023/08/25 04:51:24;;;;;;;46.88;36.15;;;19.10;99.90;;;;;;5052272;28;20496;-74
2023/08/25 04:53:50;;;;;;;48.05;36.70;;;19.10;99.90;;;;;;4988793;28;22020;-73
2023/08/25 04:56:17;;;;;;;47.95;34.58;;;19.10;99.90;;;;;;5041358;28;20061;-75
2023/08/25 04:58:43;;;;;;;51.88;38.05;;;19.10;99.90;;;;;;5013530;28;20455;-73
2023/08/25 05:01:09;;;;;;;52.60;38.53;;;19.10;99.90;;;;;;5041730;28;20060;-73
2023/08/25 05:03:35;;;;;;;52.13;38.45;;;19.20;99.90;;;;;;5000621;28;20547;-73
2023/08/25 05:06:02;;;;;;;53.40;37.75;;;19.20;99.90;;;;;;5034948;28;20052;-72
2023/08/25 05:08:28;;;;;;;54.25;39.25;;;19.20;99.90;;;;;;5008903;28;20044;-72
2023/08/25 05:10:54;;;;;;;54.22;39.85;;;19.20;99.90;;;;;;5037263;28;20064;-72
2023/08/25 05:13:20;;;;;;;59.75;40.28;;;19.20;99.90;;;;;;5003667;28;20041;-73
2023/08/25 05:15:46;;;;;;;52.92;38.70;;;19.20;99.90;;;;;;5039115;28;20060;-71
2023/08/25 05:18:12;;;;;;;55.13;40.80;;;19.20;99.90;;;;;;5002506;28;20053;-73
2023/08/25 05:20:39;;;;;;;51.45;38.15;;;19.20;99.90;;;;;;5037682;28;20049;-74
2023/08/25 05:23:05;;;;;;;59.03;39.03;;;19.20;99.90;;;;;;5021542;28;20525;-74
2023/08/25 05:25:32;;;;;;;49.05;38.55;;;19.20;99.90;;;;;;5038711;28;20061;-73
2023/08/25 05:27:58;;;;;;;57.45;38.83;;;19.20;99.90;;;;;;5007803;28;20462;-74
2023/08/25 05:30:24;;;;;;;56.63;38.45;;;19.20;99.90;;;;;;5045312;28;20056;-75
2023/08/25 05:32:50;;;;;;;55.13;39.50;;;19.20;99.90;;;;;;5022806;28;20056;-73
2023/08/25 05:35:16;;;;;;;56.95;39.10;;;19.30;99.90;;;;;;5040747;28;20064;-75
2023/08/25 05:37:45;;;;;;;56.50;39.40;;;19.20;99.90;;;;;;5009809;28;20758;-73
2023/08/25 05:40:12;;;;;;;54.55;38.17;;;19.30;99.90;;;;;;5030176;28;20072;-72
2023/08/25 05:42:38;;;;;;;63.17;42.03;;;19.20;99.90;;;;;;5005136;28;20041;-73
2023/08/25 05:45:06;;;;;;;59.38;40.70;;;19.20;99.90;;;;;;5034844;28;20056;-72
2023/08/25 05:47:32;;;;;;;56.20;38.35;;;19.30;99.90;;;;;;5020274;28;20418;-73
2023/08/25 05:49:58;;;;;;;58.28;40.50;;;19.30;99.90;;;;;;5063940;28;20096;-73
2023/08/25 05:52:25;;;;;;;65.10;42.42;;;19.30;99.90;;;;;;5006379;28;188303;-73
2023/08/25 05:54:51;;;;;;;63.20;42.53;;;19.30;99.90;;;;;;5052099;28;20060;-72
2023/08/25 05:57:17;;;;;;;53.13;39.70;;;19.30;99.90;;;;;;5019443;28;20419;-72
2023/08/25 05:59:43;;;;;;;61.95;42.38;;;19.40;99.90;;;;;;5037618;28;20056;-74
2023/08/25 06:02:09;;;;;;;61.05;41.17;;;19.40;99.90;;;;;;5028522;28;20769;-73
2023/08/25 06:04:35;;;;;;;59.80;39.83;;;19.40;99.90;;;;;;5075903;28;20052;-73
2023/08/25 06:07:01;;;;;;;59.28;41.38;;;19.50;99.90;;;;;;5020179;28;20060;-75
2023/08/25 06:09:27;;;;;;;55.50;39.33;;;19.50;99.90;;;;;;5052293;28;20056;-73
2023/08/25 06:11:54;;;;;;;60.63;41.55;;;19.50;99.90;;;;;;5022961;28;20047;-73
2023/08/25 06:14:20;;;;;;;59.10;40.72;;;19.50;99.90;;;;;;5060209;28;20514;-73
2023/08/25 06:16:46;;;;;;;61.85;41.13;;;19.50;99.90;;;;;;5024819;28;20064;-74
2023/08/25 06:19:14;;;;;;;57.33;40.28;;;19.50;99.90;;;;;;5061081;28;20531;-73
2023/08/25 06:21:40;;;;;;;63.45;41.08;;;19.60;99.90;;;;;;5028681;28;20064;-74
2023/08/25 06:24:06;;;;;;;54.38;39.33;;;19.70;99.90;;;;;;5074401;28;20447;-72
2023/08/25 06:26:33;;;;;;;55.95;39.58;;;19.70;99.90;;;;;;5057951;28;20044;-74
2023/08/25 06:28:59;;;;;;;51.10;37.90;;;19.80;99.90;;;;;;5019664;28;20487;-74
2023/08/25 06:31:29;;;;;;;53.22;38.10;;;20.00;99.90;;;;;;5062446;28;20048;-73
2023/08/25 06:33:56;;;;;;;51.58;37.90;;;20.10;99.90;;;;;;5023384;28;20056;-75
2023/08/25 06:36:22;;;;;;;53.47;37.28;;;20.10;99.90;;;;;;5065913;28;20059;-75
2023/08/25 06:38:48;;;;;;;51.53;37.15;;;20.20;99.90;;;;;;5019443;28;20521;-73
2023/08/25 06:41:14;;;;;;;55.30;37.97;;;20.20;99.90;;;;;;5061891;28;20048;-74
2023/08/25 06:43:40;;;;;;;50.65;37.58;;;20.30;99.90;;;;;;5007197;28;20049;-72
2023/08/25 06:46:06;;;;;;;55.72;37.15;;;20.30;99.90;;;;;;5060478;28;21201;-73
2023/08/25 06:48:32;;;;;;;53.72;37.72;;;20.30;99.90;;;;;;5037874;28;20051;-73
2023/08/25 06:50:58;;;;;;;47.47;34.50;;;20.30;99.90;;;;;;5060754;28;20059;-73
2023/08/25 06:53:25;;;;;;;52.53;37.45;;;20.30;99.90;;;;;;5006132;28;61132;-73
2023/08/25 06:55:51;;;;;;;48.97;36.03;;;20.40;99.90;;;;;;5061488;28;20049;-73
2023/08/25 06:58:17;;;;;;;53.50;36.65;;;20.40;99.90;;;;;;5016240;28;20056;-75
2023/08/25 07:00:43;;;;;;;55.03;37.97;;;20.30;99.90;;;;;;5054497;28;20052;-73
2023/08/25 07:03:09;;;;;;;58.28;38.95;;;20.30;99.90;;;;;;5027970;28;20060;-75
2023/08/25 07:05:38;;;;;;;57.10;39.47;;;20.30;99.90;;;;;;5058441;28;20052;-75
2023/08/25 07:08:05;;;;;;;54.90;38.50;;;20.30;99.90;;;;;;5021617;28;20041;-74
2023/08/25 07:10:31;;;;;;;53.78;38.20;;;20.40;99.90;;;;;;5061803;28;20427;-76
2023/08/25 07:12:57;;;;;;;52.03;36.80;;;20.40;99.90;;;;;;5013781;28;20575;-74
2023/08/25 07:15:24;;;;;;;54.40;39.47;;;20.40;99.90;;;;;;5052315;28;20056;-75
2023/08/25 07:17:50;;;;;;;55.65;37.92;;;20.50;99.90;;;;;;5010124;28;20052;-74
2023/08/25 07:20:16;;;;;;;57.15;40.15;;;20.50;99.90;;;;;;5059168;28;20530;-74
2023/08/25 07:22:42;;;;;;;56.20;39.08;;;20.50;99.90;;;;;;5025713;28;20060;-72
2023/08/25 07:25:08;;;;;;;52.83;37.97;;;20.50;99.90;;;;;;5062116;28;20565;-75
2023/08/25 07:27:34;;;;;;;49.05;36.53;;;20.50;99.90;;;;;;5019733;28;20037;-73
2023/08/25 07:30:01;;;;;;;50.10;37.40;;;20.70;99.90;;;;;;5053047;28;20052;-76
2023/08/25 07:32:27;;;;;;;54.92;37.75;;;20.80;99.90;;;;;;5016563;28;20792;-72
2023/08/25 07:34:53;;;;;;;48.63;36.17;;;21.00;99.90;;;;;;5060971;28;20116;-73
2023/08/25 07:37:19;;;;;;;47.17;35.33;;;21.00;99.90;;;;;;5020495;28;20060;-75
2023/08/25 07:39:51;;;;;;;52.90;37.15;;;21.10;99.90;;;;;;5060785;28;20061;-74
2023/08/25 07:42:17;;;;;;;53.35;37.67;;;21.10;99.90;;;;;;5016734;28;20067;-75
2023/08/25 07:44:43;;;;;;;47.75;34.95;;;21.10;99.90;;;;;;5071860;28;20043;-72
2023/08/25 07:47:09;;;;;;;49.05;35.88;;;21.10;99.90;;;;;;5019895;28;20053;-74
2023/08/25 07:49:35;;;;;;;46.70;34.78;;;21.10;99.90;;;;;;5057328;28;20063;-73
2023/08/25 07:52:01;;;;;;;56.80;37.05;;;21.10;99.90;;;;;;5012676;28;78509;-73
2023/08/25 07:54:28;;;;;;;48.33;35.42;;;21.30;99.90;;;;;;5062591;28;20060;-73
2023/08/25 07:56:54;;;;;;;47.17;33.25;;;21.30;99.90;;;;;;5018829;28;20515;-75
2023/08/25 07:59:21;;;;;;;50.60;34.22;;;21.30;99.90;;;;;;5058291;28;20048;-76
2023/08/25 08:01:47;;;;;;;48.92;33.55;;;21.40;99.90;;;;;;5019988;28;20056;-74
2023/08/25 08:04:13;;;;;;;46.47;33.42;;;21.40;99.90;;;;;;5060426;28;20462;-74
2023/08/25 08:06:40;;;;;;;49.65;33.25;;;21.40;99.90;;;;;;5027797;28;20064;-71
2023/08/25 08:09:06;;;;;;;44.08;33.10;;;21.50;99.90;;;;;;5062133;28;20049;-73
2023/08/25 08:11:35;;;;;;;45.03;32.10;;;21.60;99.90;;;;;;5062180;28;20049;-72
2023/08/25 08:14:02;;;;;;;43.72;33.47;;;21.90;99.90;;;;;;5026397;28;20052;-74
2023/08/25 08:16:29;;;;;;;42.67;31.70;;;22.00;99.90;;;;;;5058772;28;20415;-72
2023/08/25 08:18:55;;;;;;;45.28;32.17;;;22.20;99.90;;;;;;5002492;28;20049;-73
2023/08/25 08:21:21;;;;;;;47.53;33.05;;;22.20;99.90;;;;;;5034149;28;20046;-75
2023/08/25 08:23:47;;;;;;;42.47;30.63;;;22.50;99.90;;;;;;5015292;28;20063;-72
2023/08/25 08:26:14;;;;;;;43.15;30.65;;;22.60;99.90;;;;;;5039258;28;20060;-73
2023/08/25 08:28:40;;;;;;;40.80;30.45;;;22.60;99.90;;;;;;5017779;28;20056;-73
2023/08/25 08:31:06;;;;;;;36.92;28.50;;;22.70;99.90;;;;;;5035278;28;20056;-72
2023/08/25 08:33:32;;;;;;;38.05;29.63;;;22.80;99.90;;;;;;5005473;28;20060;-71
2023/08/25 08:35:59;;;;;;;46.65;31.13;;;23.00;99.90;;;;;;5040720;28;20427;-72
2023/08/25 08:38:26;;;;;;;39.17;30.55;;;23.10;99.90;;;;;;5016725;28;20048;-73
2023/08/25 08:40:58;;;;;;;40.25;27.55;;;23.10;99.90;;;;;;5040960;28;20056;-72
2023/08/25 08:43:26;;;;;;;37.40;27.30;;;22.90;99.90;;;;;;5002069;28;20049;-72
2023/08/25 08:45:53;;;;;;;32.90;25.70;;;22.70;99.90;;;;;;5038064;28;20056;-72
2023/08/25 08:48:20;;;;;;;39.75;28.02;;;22.60;99.90;;;;;;5007327;28;20103;-73
2023/08/25 08:50:47;;;;;;;36.33;26.02;;;22.50;99.90;;;;;;5047343;28;20514;-72
2023/08/25 08:53:15;;;;;;;38.15;27.48;;;22.40;99.90;;;;;;4995113;28;248673;-72
2023/08/25 08:55:43;;;;;;;35.97;27.27;;;22.30;99.90;;;;;;5045671;28;20064;-71
2023/08/25 08:58:09;;;;;;;39.33;28.40;;;22.30;99.90;;;;;;5025398;28;20044;-72
2023/08/25 09:00:35;;;;;;;37.50;27.08;;;22.20;99.90;;;;;;5047756;28;20060;-72
2023/08/25 09:03:11;;;;;;;34.10;27.00;;;22.10;99.90;;;;;;5025675;28;20056;-73
2023/08/25 09:05:39;;;;;;;41.05;27.35;;;22.10;99.90;;;;;;5040870;28;20512;-72
2023/08/25 09:08:08;;;;;;;38.20;27.65;;;22.00;99.90;;;;;;5026310;28;20118;-73
2023/08/25 09:10:34;;;;;;;40.50;28.00;;;21.90;99.90;;;;;;5045885;28;20049;-77
2023/08/25 09:13:00;;;;;;;39.92;28.88;;;21.90;99.90;;;;;;5016349;28;20059;-73
2023/08/25 09:15:32;;;;;;;38.92;28.10;;;21.90;99.90;;;;;;5035646;28;20431;-73
2023/08/25 09:18:08;;;;;;;39.70;29.02;;;21.90;99.90;;;;;;5012901;28;20458;-74
2023/08/25 09:20:38;;;;;;;45.10;29.73;;;22.00;99.90;;;;;;5039538;28;20049;-74
2023/08/25 09:23:06;;;;;;;42.47;31.00;;;22.00;99.90;;;;;;5001289;28;20056;-73
2023/08/25 09:25:32;;;;;;;38.00;29.05;;;22.10;99.90;;;;;;5041492;28;20068;-73
2023/08/25 09:28:03;;;;;;;40.22;29.58;;;22.40;99.90;;;;;;5007775;28;20083;-73
2023/08/25 09:30:46;;;;;;;39.20;29.17;;;22.80;99.90;;;;;;5044945;28;20064;-72
2023/08/25 09:33:15;;;;;;;39.05;28.05;;;23.10;99.90;;;;;;5018953;28;20255;-75
2023/08/25 09:35:42;;;;;;;37.03;28.35;;;23.20;99.90;;;;;;5045078;28;20057;-73
2023/08/25 09:38:20;;;;;;;38.35;29.17;;;23.20;99.90;;;;;;5011023;28;20052;-74
2023/08/25 09:40:46;;;;;;;36.90;28.67;;;23.40;99.90;;;;;;5043520;28;20045;-73
2023/08/25 09:43:13;;;;;;;37.17;26.50;;;23.50;99.90;;;;;;5003293;28;20048;-72
2023/08/25 09:45:40;;;;;;;29.42;21.67;;;23.50;99.90;;;;;;5041089;28;20508;-73
2023/08/25 09:48:07;;;;;;;27.80;22.00;;;23.60;99.90;;;;;;5009413;28;20045;-72
2023/08/25 09:50:43;;;;;;;32.13;22.20;;;23.70;99.90;;;;;;5039117;28;20067;-72
2023/08/25 09:53:13;;;;;;;32.20;21.75;;;23.80;99.90;;;;;;4995500;28;181294;-72
2023/08/25 09:55:39;;;;;;;30.00;20.30;;;23.80;99.90;;;;;;5040369;28;20064;-72
2023/08/25 09:58:08;;;;;;;27.48;20.23;;;23.80;99.90;;;;;;5022718;28;20053;-72
2023/08/25 10:00:36;;;;;;;27.92;20.38;;;23.80;99.90;;;;;;5043884;28;20089;-72
2023/08/25 10:03:08;;;;;;;27.83;20.50;;;23.80;99.90;;;;;;4997425;28;20115;-72
2023/08/25 10:05:39;;;;;;;26.73;18.70;;;23.90;99.90;;;;;;5036756;28;20045;-75
2023/08/25 10:08:09;;;;;;;26.38;17.65;;;23.80;99.90;;;;;;5025729;28;20617;-73
2023/08/25 10:10:38;;;;;;;28.02;17.30;;;23.80;99.90;;;;;;5041037;28;20057;-74
2023/08/25 10:13:04;;;;;;;29.95;18.13;;;23.80;99.90;;;;;;5018243;28;20470;-72
2023/08/25 10:15:32;;;;;;;25.33;17.70;;;23.70;99.90;;;;;;5035060;28;20499;-76
2023/08/25 10:18:03;;;;;;;24.02;17.15;;;23.60;99.90;;;;;;5014905;28;20052;-72
2023/08/25 10:20:30;;;;;;;25.60;16.17;;;23.60;99.90;;;;;;5038984;28;20108;-71
2023/08/25 10:22:57;;;;;;;23.05;15.98;;;23.70;99.90;;;;;;5014846;28;20052;-72
2023/08/25 10:25:29;;;;;;;23.85;16.13;;;23.70;99.90;;;;;;5043848;28;20053;-72
2023/08/25 10:28:00;;;;;;;27.35;17.00;;;23.60;99.90;;;;;;5001317;28;20044;-76
2023/08/25 10:30:29;;;;;;;27.35;17.02;;;23.50;99.90;;;;;;5042071;28;20053;-72
2023/08/25 10:33:04;;;;;;;24.70;16.30;;;23.40;99.90;;;;;;5016454;28;20055;-73
2023/08/25 10:35:43;;;;;;;23.42;16.58;;;23.40;99.90;;;;;;5042804;28;20053;-73
2023/08/25 10:38:18;;;;;;;24.17;18.02;;;23.30;99.90;;;;;;5002136;28;20040;-72
2023/08/25 10:40:49;;;;;;;26.98;17.98;;;23.30;99.90;;;;;;5041252;28;20056;-73
2023/08/25 10:43:26;;;;;;;46.42;19.45;;;23.30;99.90;;;;;;5018979;28;20517;-72
2023/08/25 10:45:52;;;;;;;27.48;18.17;;;23.10;99.90;;;;;;5032389;28;20064;-73
2023/08/25 10:48:23;;;;;;;31.55;17.80;;;23.00;99.90;;;;;;5013479;28;20051;-73
2023/08/25 10:50:52;;;;;;;30.08;18.92;;;22.80;99.90;;;;;;5045785;28;20076;-72
2023/08/25 10:53:49;;;;;;;29.23;18.23;;;22.70;99.90;;;;;;5004474;28;128532;-74
2023/08/25 10:56:18;;;;;;;25.92;16.73;;;22.70;99.90;;;;;;5064326;28;20048;-71
2023/08/25 10:58:59;;;;;;;26.27;18.50;;;22.70;99.90;;;;;;5016137;28;20052;-75
2023/08/25 11:01:46;;;;;;;29.63;17.70;;;22.80;99.90;;;;;;5035884;28;20048;-71
2023/08/25 11:04:21;;;;;;;38.08;19.83;;;22.70;99.90;;;;;;4967354;28;20060;-72
2023/08/25 11:06:49;;;;;;;31.77;19.70;;;22.70;99.90;;;;;;5006424;28;20048;-74
2023/08/25 11:09:18;;;;;;;26.50;19.13;;;22.70;99.90;;;;;;5048538;28;20128;-72
2023/08/25 11:11:46;;;;;;;28.05;18.95;;;22.70;99.90;;;;;;5000890;28;20044;-72
2023/08/25 11:14:13;;;;;;;28.30;18.85;;;22.60;99.90;;;;;;5052544;28;20049;-73
2023/08/25 11:16:40;;;;;;;26.67;18.25;;;22.60;99.90;;;;;;5005223;28;20053;-72
2023/08/25 11:19:10;;;;;;;30.02;19.63;;;22.70;99.90;;;;;;5048237;28;20053;-79
2023/08/25 11:21:36;;;;;;;28.33;20.25;;;22.80;99.90;;;;;;5017061;28;20041;-74
2023/08/25 11:24:03;;;;;;;27.33;19.38;;;22.80;99.90;;;;;;5016960;28;105234;-73
2023/08/25 11:26:30;;;;;;;26.30;18.85;;;22.90;99.90;;;;;;5033919;28;20056;-74
2023/08/25 11:28:56;;;;;;;28.88;20.58;;;23.00;99.90;;;;;;5020839;28;20507;-73
2023/08/25 11:31:23;;;;;;;25.42;17.63;;;23.20;99.90;;;;;;5055496;28;20503;-73
2023/08/25 11:33:51;;;;;;;39.15;27.45;;;23.40;99.90;;;;;;5020689;28;20534;-73
2023/08/25 11:36:17;;;;;;;41.90;30.80;;;23.60;99.90;;;;;;5058464;28;20060;-72
2023/08/25 11:38:48;;;;;;;38.15;30.00;;;23.80;99.90;;;;;;5020899;28;20122;-73
2023/08/25 11:41:16;;;;;;;47.30;30.52;;;24.10;99.90;;;;;;5060216;28;20059;-76
2023/08/25 11:43:44;;;;;;;39.28;30.05;;;24.30;99.90;;;;;;5007589;28;20067;-73
2023/08/25 11:46:11;;;;;;;43.20;29.38;;;24.40;99.90;;;;;;5073617;28;20056;-74
2023/08/25 11:48:38;;;;;;;41.65;31.65;;;24.40;99.90;;;;;;5024706;28;20063;-72
2023/08/25 11:51:04;;;;;;;40.03;30.52;;;24.30;99.90;;;;;;5059278;28;20084;-74
2023/08/25 11:53:31;;;;;;;45.78;32.13;;;24.00;99.90;;;;;;5011475;28;31035;-76
2023/08/25 11:56:03;;;;;;;41.58;31.73;;;23.70;99.90;;;;;;5058335;28;20052;-72
2023/08/25 11:58:33;;;;;;;45.72;32.30;;;23.60;99.90;;;;;;5037284;28;20047;-74
2023/08/25 12:01:04;;;;;;;43.60;31.83;;;23.50;99.90;;;;;;5062230;28;20056;-72
2023/08/25 12:03:30;;;;;;;43.33;30.95;;;23.50;99.90;;;;;;5028583;28;20049;-75
2023/08/25 12:05:56;;;;;;;43.53;32.13;;;23.50;99.90;;;;;;5058406;28;20055;-72
2023/08/25 12:08:24;;;;;;;46.83;32.50;;;23.50;99.90;;;;;;5038306;28;20048;-73
2023/08/25 12:10:53;;;;;;;44.72;32.08;;;23.50;99.90;;;;;;5064186;28;20056;-76
2023/08/25 12:13:29;;;;;;;45.53;32.25;;;23.50;99.90;;;;;;5025729;28;20569;-76
2023/08/25 12:15:56;;;;;;;40.67;31.13;;;23.50;99.90;;;;;;5061509;28;20053;-73
2023/08/25 12:18:23;;;;;;;41.35;31.67;;;23.50;99.90;;;;;;5004034;28;20049;-73
2023/08/25 12:20:50;;;;;;;40.60;29.90;;;23.50;99.90;;;;;;5065126;28;20048;-73
2023/08/25 12:23:17;;;;;;;41.60;31.02;;;23.60;99.90;;;;;;5009037;28;20056;-72
2023/08/25 12:25:43;;;;;;;42.33;31.90;;;23.70;99.90;;;;;;5061136;28;20426;-77
2023/08/25 12:28:13;;;;;;;43.90;31.17;;;23.80;99.90;;;;;;5009772;28;20044;-74